sensor_id;sensor_type;location;lat;lon;timestamp;P1;durP1;ratioP1;P2;durP2;ratioP2
24559;SDS011;12727;49.934;8.656;2023-12-20T00:00:13;11.73;;;6.10;;
24559;SDS011;12727;49.934;8.656;2023-12-20T00:02:39;10.45;;;6.88;;
24559;SDS011;12727;49.934;8.656;2023-12-20T00:05:04;9.13;;;5.97;;
24559;SDS011;12727;49.934;8.656;2023-12-20T00:07:31;10.57;;;6.85;;
24559;SDS011;12727;49.934;8.656;2023-12-20T00:09:56;11.23;;;6.97;;
24559;SDS011;12727;49.934;8.656;2023-12-20T00:12:22;11.25;;;6.85;;
24559;SDS011;12727;49.934;8.656;2023-12-20T00:14:47;12.60;;;7.03;;
24559;SDS011;12727;49.934;8.656;2023-12-20T00:17:13;9.15;;;6.65;;
24559;SDS011;12727;49.934;8.656;2023-12-20T00:19:39;9.80;;;5.85;;
24559;SDS011;12727;49.934;8.656;2023-12-20T00:22:04;7.63;;;5.18;;
24559;SDS011;12727;49.934;8.656;2023-12-20T00:24:30;9.45;;;5.97;;
24559;SDS011;12727;49.934;8.656;2023-12-20T00:26:55;9.10;;;5.70;;
24559;SDS011;12727;49.934;8.656;2023-12-20T00:29:21;9.10;;;5.38;;
24559;SDS011;12727;49.934;8.656;2023-12-20T00:31:46;8.10;;;5.35;;
24559;SDS011;12727;49.934;8.656;2023-12-20T00:34:12;6.85;;;4.45;;
24559;SDS011;12727;49.934;8.656;2023-12-20T00:36:37;8.23;;;5.78;;
24559;SDS011;12727;49.934;8.656;2023-12-20T00:39:03;7.43;;;5.18;;
24559;SDS011;12727;49.934;8.656;2023-12-20T00:41:29;5.70;;;4.40;;
24559;SDS011;12727;49.934;8.656;2023-12-20T00:43:54;6.95;;;4.45;;
24559;SDS011;12727;49.934;8.656;2023-12-20T00:46:20;7.40;;;4.50;;
24559;SDS011;12727;49.934;8.656;2023-12-20T00:48:45;8.30;;;4.38;;
24559;SDS011;12727;49.934;8.656;2023-12-20T00:51:11;6.10;;;3.92;;
24559;SDS011;12727;49.934;8.656;2023-12-20T00:53:37;6.15;;;4.13;;
24559;SDS011;12727;49.934;8.656;2023-12-20T00:56:02;9.10;;;4.50;;
24559;SDS011;12727;49.934;8.656;2023-12-20T00:58:28;6.05;;;4.07;;
24559;SDS011;12727;49.934;8.656;2023-12-20T01:00:53;8.18;;;4.65;;
24559;SDS011;12727;49.934;8.656;2023-12-20T01:03:19;7.65;;;4.28;;
24559;SDS011;12727;49.934;8.656;2023-12-20T01:05:44;7.43;;;4.35;;
24559;SDS011;12727;49.934;8.656;2023-12-20T01:08:10;9.10;;;4.45;;
24559;SDS011;12727;49.934;8.656;2023-12-20T01:10:36;6.30;;;4.50;;
24559;SDS011;12727;49.934;8.656;2023-12-20T01:13:01;7.70;;;4.57;;
24559;SDS011;12727;49.934;8.656;2023-12-20T01:15:27;6.10;;;3.65;;
24559;SDS011;12727;49.934;8.656;2023-12-20T01:17:53;6.65;;;4.53;;
24559;SDS011;12727;49.934;8.656;2023-12-20T01:20:18;8.10;;;4.55;;
24559;SDS011;12727;49.934;8.656;2023-12-20T01:22:45;6.60;;;4.18;;
24559;SDS011;12727;49.934;8.656;2023-12-20T01:25:11;7.15;;;4.15;;
24559;SDS011;12727;49.934;8.656;2023-12-20T01:27:37;6.25;;;4.38;;
24559;SDS011;12727;49.934;8.656;2023-12-20T01:30:03;6.93;;;4.68;;
24559;SDS011;12727;49.934;8.656;2023-12-20T01:32:29;7.30;;;4.80;;
24559;SDS011;12727;49.934;8.656;2023-12-20T01:34:55;7.35;;;4.70;;
24559;SDS011;12727;49.934;8.656;2023-12-20T01:37:20;5.50;;;4.13;;
24559;SDS011;12727;49.934;8.656;2023-12-20T01:39:48;6.25;;;4.32;;
24559;SDS011;12727;49.934;8.656;2023-12-20T01:42:14;6.63;;;4.30;;
24559;SDS011;12727;49.934;8.656;2023-12-20T01:44:39;6.53;;;4.32;;
24559;SDS011;12727;49.934;8.656;2023-12-20T01:47:05;5.38;;;3.45;;
24559;SDS011;12727;49.934;8.656;2023-12-20T01:49:31;5.60;;;3.90;;
24559;SDS011;12727;49.934;8.656;2023-12-20T01:51:56;5.88;;;4.32;;
24559;SDS011;12727;49.934;8.656;2023-12-20T01:54:22;7.38;;;4.20;;
24559;SDS011;12727;49.934;8.656;2023-12-20T01:56:48;7.57;;;4.47;;
24559;SDS011;12727;49.934;8.656;2023-12-20T01:59:14;7.03;;;3.92;;
24559;SDS011;12727;49.934;8.656;2023-12-20T02:01:40;7.45;;;4.45;;
24559;SDS011;12727;49.934;8.656;2023-12-20T02:04:06;5.82;;;3.92;;
24559;SDS011;12727;49.934;8.656;2023-12-20T02:06:32;5.70;;;3.72;;
24559;SDS011;12727;49.934;8.656;2023-12-20T02:08:59;5.78;;;3.85;;
24559;SDS011;12727;49.934;8.656;2023-12-20T02:11:25;6.75;;;4.40;;
24559;SDS011;12727;49.934;8.656;2023-12-20T02:13:51;6.45;;;4.13;;
24559;SDS011;12727;49.934;8.656;2023-12-20T02:16:16;5.78;;;4.30;;
24559;SDS011;12727;49.934;8.656;2023-12-20T02:18:42;6.45;;;4.13;;
24559;SDS011;12727;49.934;8.656;2023-12-20T02:21:12;6.85;;;4.80;;
24559;SDS011;12727;49.934;8.656;2023-12-20T02:23:37;7.82;;;4.53;;
24559;SDS011;12727;49.934;8.656;2023-12-20T02:26:03;7.57;;;4.55;;
24559;SDS011;12727;49.934;8.656;2023-12-20T02:28:30;6.63;;;4.40;;
24559;SDS011;12727;49.934;8.656;2023-12-20T02:30:56;6.28;;;3.60;;
24559;SDS011;12727;49.934;8.656;2023-12-20T02:33:22;4.68;;;3.72;;
24559;SDS011;12727;49.934;8.656;2023-12-20T02:35:48;5.97;;;4.00;;
24559;SDS011;12727;49.934;8.656;2023-12-20T02:38:13;7.00;;;4.50;;
24559;SDS011;12727;49.934;8.656;2023-12-20T02:40:39;7.03;;;4.57;;
24559;SDS011;12727;49.934;8.656;2023-12-20T02:43:04;6.68;;;4.32;;
24559;SDS011;12727;49.934;8.656;2023-12-20T02:45:30;8.00;;;5.18;;
24559;SDS011;12727;49.934;8.656;2023-12-20T02:47:55;7.20;;;4.28;;
24559;SDS011;12727;49.934;8.656;2023-12-20T02:50:21;6.25;;;4.25;;
24559;SDS011;12727;49.934;8.656;2023-12-20T02:52:47;10.20;;;4.45;;
24559;SDS011;12727;49.934;8.656;2023-12-20T02:55:12;5.13;;;3.88;;
24559;SDS011;12727;49.934;8.656;2023-12-20T02:57:38;5.90;;;4.00;;
24559;SDS011;12727;49.934;8.656;2023-12-20T03:00:07;6.78;;;4.45;;
24559;SDS011;12727;49.934;8.656;2023-12-20T03:02:34;5.53;;;3.30;;
24559;SDS011;12727;49.934;8.656;2023-12-20T03:04:59;4.63;;;3.35;;
24559;SDS011;12727;49.934;8.656;2023-12-20T03:07:25;5.53;;;3.58;;
24559;SDS011;12727;49.934;8.656;2023-12-20T03:09:51;5.45;;;3.33;;
24559;SDS011;12727;49.934;8.656;2023-12-20T03:12:16;4.95;;;3.35;;
24559;SDS011;12727;49.934;8.656;2023-12-20T03:14:43;6.00;;;3.53;;
24559;SDS011;12727;49.934;8.656;2023-12-20T03:17:09;5.20;;;3.47;;
24559;SDS011;12727;49.934;8.656;2023-12-20T03:19:34;5.47;;;3.80;;
24559;SDS011;12727;49.934;8.656;2023-12-20T03:22:00;5.25;;;3.45;;
24559;SDS011;12727;49.934;8.656;2023-12-20T03:24:26;4.43;;;3.13;;
24559;SDS011;12727;49.934;8.656;2023-12-20T03:26:51;4.85;;;3.40;;
24559;SDS011;12727;49.934;8.656;2023-12-20T03:29:17;5.68;;;3.40;;
24559;SDS011;12727;49.934;8.656;2023-12-20T03:31:42;4.78;;;3.10;;
24559;SDS011;12727;49.934;8.656;2023-12-20T03:34:08;4.63;;;3.30;;
24559;SDS011;12727;49.934;8.656;2023-12-20T03:36:34;7.18;;;3.90;;
24559;SDS011;12727;49.934;8.656;2023-12-20T03:38:59;5.63;;;3.38;;
24559;SDS011;12727;49.934;8.656;2023-12-20T03:41:25;5.28;;;3.63;;
24559;SDS011;12727;49.934;8.656;2023-12-20T03:43:50;3.83;;;2.92;;
24559;SDS011;12727;49.934;8.656;2023-12-20T03:46:16;4.50;;;2.90;;
24559;SDS011;12727;49.934;8.656;2023-12-20T03:48:41;5.18;;;3.13;;
24559;SDS011;12727;49.934;8.656;2023-12-20T03:51:07;3.63;;;2.60;;
24559;SDS011;12727;49.934;8.656;2023-12-20T03:53:32;4.88;;;3.60;;
24559;SDS011;12727;49.934;8.656;2023-12-20T03:55:58;4.57;;;3.15;;
24559;SDS011;12727;49.934;8.656;2023-12-20T03:58:24;8.95;;;3.45;;
24559;SDS011;12727;49.934;8.656;2023-12-20T04:00:49;3.83;;;3.15;;
24559;SDS011;12727;49.934;8.656;2023-12-20T04:03:15;3.95;;;2.95;;
24559;SDS011;12727;49.934;8.656;2023-12-20T04:05:40;4.53;;;3.03;;
24559;SDS011;12727;49.934;8.656;2023-12-20T04:08:07;4.85;;;2.92;;
24559;SDS011;12727;49.934;8.656;2023-12-20T04:10:32;5.78;;;3.13;;
24559;SDS011;12727;49.934;8.656;2023-12-20T04:12:58;4.75;;;3.45;;
24559;SDS011;12727;49.934;8.656;2023-12-20T04:15:23;6.88;;;3.47;;
24559;SDS011;12727;49.934;8.656;2023-12-20T04:17:49;5.38;;;3.70;;
24559;SDS011;12727;49.934;8.656;2023-12-20T04:20:15;4.88;;;3.33;;
24559;SDS011;12727;49.934;8.656;2023-12-20T04:22:40;5.00;;;3.63;;
24559;SDS011;12727;49.934;8.656;2023-12-20T04:25:07;5.22;;;3.70;;
24559;SDS011;12727;49.934;8.656;2023-12-20T04:27:33;6.18;;;3.65;;
24559;SDS011;12727;49.934;8.656;2023-12-20T04:29:58;5.13;;;3.30;;
24559;SDS011;12727;49.934;8.656;2023-12-20T04:32:24;5.72;;;3.53;;
24559;SDS011;12727;49.934;8.656;2023-12-20T04:34:50;6.38;;;3.85;;
24559;SDS011;12727;49.934;8.656;2023-12-20T04:37:15;4.60;;;3.65;;
24559;SDS011;12727;49.934;8.656;2023-12-20T04:39:41;7.63;;;3.42;;
24559;SDS011;12727;49.934;8.656;2023-12-20T04:42:07;4.80;;;3.50;;
24559;SDS011;12727;49.934;8.656;2023-12-20T04:44:33;6.50;;;3.95;;
24559;SDS011;12727;49.934;8.656;2023-12-20T04:46:59;5.22;;;3.53;;
24559;SDS011;12727;49.934;8.656;2023-12-20T04:49:25;4.93;;;3.55;;
24559;SDS011;12727;49.934;8.656;2023-12-20T04:51:50;4.70;;;3.60;;
24559;SDS011;12727;49.934;8.656;2023-12-20T04:54:16;4.95;;;3.72;;
24559;SDS011;12727;49.934;8.656;2023-12-20T04:56:42;8.00;;;3.97;;
24559;SDS011;12727;49.934;8.656;2023-12-20T04:59:07;4.90;;;3.72;;
24559;SDS011;12727;49.934;8.656;2023-12-20T05:01:33;5.15;;;3.80;;
24559;SDS011;12727;49.934;8.656;2023-12-20T05:03:58;8.15;;;4.10;;
24559;SDS011;12727;49.934;8.656;2023-12-20T05:06:24;5.95;;;4.20;;
24559;SDS011;12727;49.934;8.656;2023-12-20T05:08:49;6.78;;;3.80;;
24559;SDS011;12727;49.934;8.656;2023-12-20T05:11:15;5.15;;;3.58;;
24559;SDS011;12727;49.934;8.656;2023-12-20T05:13:41;5.57;;;3.15;;
24559;SDS011;12727;49.934;8.656;2023-12-20T05:16:07;5.45;;;3.80;;
24559;SDS011;12727;49.934;8.656;2023-12-20T05:18:34;5.75;;;3.30;;
24559;SDS011;12727;49.934;8.656;2023-12-20T05:20:59;4.55;;;2.95;;
24559;SDS011;12727;49.934;8.656;2023-12-20T05:23:25;4.20;;;2.85;;
24559;SDS011;12727;49.934;8.656;2023-12-20T05:25:51;6.78;;;3.22;;
24559;SDS011;12727;49.934;8.656;2023-12-20T05:28:16;3.95;;;2.60;;
24559;SDS011;12727;49.934;8.656;2023-12-20T05:30:42;3.17;;;2.78;;
24559;SDS011;12727;49.934;8.656;2023-12-20T05:33:08;4.63;;;2.90;;
24559;SDS011;12727;49.934;8.656;2023-12-20T05:35:34;3.90;;;2.80;;
24559;SDS011;12727;49.934;8.656;2023-12-20T05:38:00;4.75;;;2.95;;
24559;SDS011;12727;49.934;8.656;2023-12-20T05:40:26;5.13;;;3.10;;
24559;SDS011;12727;49.934;8.656;2023-12-20T05:42:51;3.90;;;2.85;;
24559;SDS011;12727;49.934;8.656;2023-12-20T05:45:17;5.65;;;2.58;;
24559;SDS011;12727;49.934;8.656;2023-12-20T05:47:42;4.35;;;2.75;;
24559;SDS011;12727;49.934;8.656;2023-12-20T05:50:08;5.55;;;3.05;;
24559;SDS011;12727;49.934;8.656;2023-12-20T05:52:34;5.45;;;3.00;;
24559;SDS011;12727;49.934;8.656;2023-12-20T05:55:00;5.60;;;2.53;;
24559;SDS011;12727;49.934;8.656;2023-12-20T05:57:28;5.00;;;2.47;;
24559;SDS011;12727;49.934;8.656;2023-12-20T05:59:54;5.10;;;2.78;;
24559;SDS011;12727;49.934;8.656;2023-12-20T06:02:19;5.10;;;3.00;;
24559;SDS011;12727;49.934;8.656;2023-12-20T06:04:45;5.05;;;2.85;;
24559;SDS011;12727;49.934;8.656;2023-12-20T06:07:11;5.70;;;2.88;;
24559;SDS011;12727;49.934;8.656;2023-12-20T06:09:38;5.47;;;2.90;;
24559;SDS011;12727;49.934;8.656;2023-12-20T06:12:03;8.35;;;2.40;;
24559;SDS011;12727;49.934;8.656;2023-12-20T06:14:29;4.97;;;2.65;;
24559;SDS011;12727;49.934;8.656;2023-12-20T06:16:56;4.40;;;2.30;;
24559;SDS011;12727;49.934;8.656;2023-12-20T06:19:22;4.57;;;2.10;;
24559;SDS011;12727;49.934;8.656;2023-12-20T06:21:48;10.65;;;2.13;;
24559;SDS011;12727;49.934;8.656;2023-12-20T06:24:13;9.32;;;2.03;;
24559;SDS011;12727;49.934;8.656;2023-12-20T06:26:39;6.80;;;2.20;;
24559;SDS011;12727;49.934;8.656;2023-12-20T06:29:05;7.03;;;1.92;;
24559;SDS011;12727;49.934;8.656;2023-12-20T06:31:30;10.63;;;2.00;;
24559;SDS011;12727;49.934;8.656;2023-12-20T06:33:58;9.07;;;2.10;;
24559;SDS011;12727;49.934;8.656;2023-12-20T06:36:28;6.47;;;1.80;;
24559;SDS011;12727;49.934;8.656;2023-12-20T06:38:54;7.22;;;2.05;;
24559;SDS011;12727;49.934;8.656;2023-12-20T06:41:20;7.28;;;1.90;;
24559;SDS011;12727;49.934;8.656;2023-12-20T06:43:45;3.65;;;1.80;;
24559;SDS011;12727;49.934;8.656;2023-12-20T06:46:12;7.97;;;2.10;;
24559;SDS011;12727;49.934;8.656;2023-12-20T06:48:38;9.43;;;2.40;;
24559;SDS011;12727;49.934;8.656;2023-12-20T06:51:05;7.78;;;2.90;;
24559;SDS011;12727;49.934;8.656;2023-12-20T06:53:31;5.53;;;2.67;;
24559;SDS011;12727;49.934;8.656;2023-12-20T06:55:56;8.65;;;3.40;;
24559;SDS011;12727;49.934;8.656;2023-12-20T06:58:23;7.45;;;3.58;;
24559;SDS011;12727;49.934;8.656;2023-12-20T07:00:51;8.75;;;3.47;;
24559;SDS011;12727;49.934;8.656;2023-12-20T07:03:19;9.88;;;3.70;;
24559;SDS011;12727;49.934;8.656;2023-12-20T07:05:45;7.05;;;3.33;;
24559;SDS011;12727;49.934;8.656;2023-12-20T07:08:11;6.75;;;3.22;;
24559;SDS011;12727;49.934;8.656;2023-12-20T07:10:39;6.97;;;3.22;;
24559;SDS011;12727;49.934;8.656;2023-12-20T07:13:05;7.75;;;3.05;;
24559;SDS011;12727;49.934;8.656;2023-12-20T07:15:31;6.75;;;2.83;;
24559;SDS011;12727;49.934;8.656;2023-12-20T07:17:56;6.18;;;2.80;;
24559;SDS011;12727;49.934;8.656;2023-12-20T07:20:24;10.18;;;3.05;;
24559;SDS011;12727;49.934;8.656;2023-12-20T07:22:50;8.02;;;3.03;;
24559;SDS011;12727;49.934;8.656;2023-12-20T07:25:16;10.35;;;3.05;;
24559;SDS011;12727;49.934;8.656;2023-12-20T07:27:41;5.97;;;2.85;;
24559;SDS011;12727;49.934;8.656;2023-12-20T07:30:07;7.88;;;2.30;;
24559;SDS011;12727;49.934;8.656;2023-12-20T07:32:33;5.10;;;1.95;;
24559;SDS011;12727;49.934;8.656;2023-12-20T07:34:58;5.32;;;2.47;;
24559;SDS011;12727;49.934;8.656;2023-12-20T07:37:24;6.57;;;2.45;;
24559;SDS011;12727;49.934;8.656;2023-12-20T07:39:50;5.88;;;2.50;;
24559;SDS011;12727;49.934;8.656;2023-12-20T07:42:15;7.65;;;2.40;;
24559;SDS011;12727;49.934;8.656;2023-12-20T07:44:41;6.13;;;2.13;;
24559;SDS011;12727;49.934;8.656;2023-12-20T07:47:06;8.80;;;2.25;;
24559;SDS011;12727;49.934;8.656;2023-12-20T07:49:32;4.80;;;2.03;;
24559;SDS011;12727;49.934;8.656;2023-12-20T07:52:01;7.72;;;2.25;;
24559;SDS011;12727;49.934;8.656;2023-12-20T07:54:27;6.40;;;2.10;;
24559;SDS011;12727;49.934;8.656;2023-12-20T07:56:52;4.65;;;1.80;;
24559;SDS011;12727;49.934;8.656;2023-12-20T07:59:18;4.95;;;1.73;;
24559;SDS011;12727;49.934;8.656;2023-12-20T08:01:43;3.58;;;1.63;;
24559;SDS011;12727;49.934;8.656;2023-12-20T08:04:09;9.18;;;2.03;;
24559;SDS011;12727;49.934;8.656;2023-12-20T08:06:35;7.90;;;1.88;;
24559;SDS011;12727;49.934;8.656;2023-12-20T08:09:00;10.05;;;2.63;;
24559;SDS011;12727;49.934;8.656;2023-12-20T08:11:26;3.72;;;1.50;;
24559;SDS011;12727;49.934;8.656;2023-12-20T08:13:51;9.23;;;1.60;;
24559;SDS011;12727;49.934;8.656;2023-12-20T08:16:17;7.15;;;1.55;;
24559;SDS011;12727;49.934;8.656;2023-12-20T08:18:43;4.47;;;1.83;;
24559;SDS011;12727;49.934;8.656;2023-12-20T08:21:09;8.07;;;2.00;;
24559;SDS011;12727;49.934;8.656;2023-12-20T08:23:34;8.90;;;2.58;;
24559;SDS011;12727;49.934;8.656;2023-12-20T08:26:04;8.30;;;2.05;;
24559;SDS011;12727;49.934;8.656;2023-12-20T08:28:31;4.28;;;2.00;;
24559;SDS011;12727;49.934;8.656;2023-12-20T08:30:57;10.02;;;2.13;;
24559;SDS011;12727;49.934;8.656;2023-12-20T08:33:22;3.78;;;1.80;;
24559;SDS011;12727;49.934;8.656;2023-12-20T08:35:48;5.75;;;1.90;;
24559;SDS011;12727;49.934;8.656;2023-12-20T08:38:13;6.90;;;1.92;;
24559;SDS011;12727;49.934;8.656;2023-12-20T08:40:39;6.32;;;1.77;;
24559;SDS011;12727;49.934;8.656;2023-12-20T08:43:05;5.40;;;2.10;;
24559;SDS011;12727;49.934;8.656;2023-12-20T08:45:31;7.68;;;2.13;;
24559;SDS011;12727;49.934;8.656;2023-12-20T08:47:56;9.18;;;2.78;;
24559;SDS011;12727;49.934;8.656;2023-12-20T08:50:22;7.60;;;3.20;;
24559;SDS011;12727;49.934;8.656;2023-12-20T08:52:47;8.63;;;3.38;;
24559;SDS011;12727;49.934;8.656;2023-12-20T08:55:13;10.60;;;3.65;;
24559;SDS011;12727;49.934;8.656;2023-12-20T08:57:41;7.00;;;2.80;;
24559;SDS011;12727;49.934;8.656;2023-12-20T09:00:07;10.18;;;2.70;;
24559;SDS011;12727;49.934;8.656;2023-12-20T09:02:33;7.63;;;2.97;;
24559;SDS011;12727;49.934;8.656;2023-12-20T09:05:01;6.22;;;2.25;;
24559;SDS011;12727;49.934;8.656;2023-12-20T09:07:27;10.02;;;2.55;;
24559;SDS011;12727;49.934;8.656;2023-12-20T09:09:55;8.43;;;2.97;;
24559;SDS011;12727;49.934;8.656;2023-12-20T09:12:21;7.82;;;3.85;;
24559;SDS011;12727;49.934;8.656;2023-12-20T09:14:47;10.70;;;4.13;;
24559;SDS011;12727;49.934;8.656;2023-12-20T09:17:14;7.88;;;4.13;;
24559;SDS011;12727;49.934;8.656;2023-12-20T09:19:41;11.52;;;4.38;;
24559;SDS011;12727;49.934;8.656;2023-12-20T09:22:10;6.70;;;2.88;;
24559;SDS011;12727;49.934;8.656;2023-12-20T09:24:35;5.75;;;2.22;;
24559;SDS011;12727;49.934;8.656;2023-12-20T09:27:01;6.57;;;2.40;;
24559;SDS011;12727;49.934;8.656;2023-12-20T09:29:27;4.25;;;1.80;;
24559;SDS011;12727;49.934;8.656;2023-12-20T09:31:53;9.30;;;2.20;;
24559;SDS011;12727;49.934;8.656;2023-12-20T09:34:19;7.97;;;2.30;;
24559;SDS011;12727;49.934;8.656;2023-12-20T09:36:44;5.18;;;1.77;;
24559;SDS011;12727;49.934;8.656;2023-12-20T09:39:13;6.80;;;2.10;;
24559;SDS011;12727;49.934;8.656;2023-12-20T09:41:43;9.68;;;2.45;;
24559;SDS011;12727;49.934;8.656;2023-12-20T09:44:15;6.90;;;2.00;;
24559;SDS011;12727;49.934;8.656;2023-12-20T09:46:45;7.15;;;2.08;;
24559;SDS011;12727;49.934;8.656;2023-12-20T09:49:12;6.88;;;2.08;;
24559;SDS011;12727;49.934;8.656;2023-12-20T09:51:39;8.02;;;2.13;;
24559;SDS011;12727;49.934;8.656;2023-12-20T09:54:05;9.25;;;2.30;;
24559;SDS011;12727;49.934;8.656;2023-12-20T09:56:31;10.50;;;2.15;;
24559;SDS011;12727;49.934;8.656;2023-12-20T09:58:57;4.90;;;2.22;;
24559;SDS011;12727;49.934;8.656;2023-12-20T10:01:23;7.82;;;2.30;;
24559;SDS011;12727;49.934;8.656;2023-12-20T10:03:50;13.45;;;2.22;;
24559;SDS011;12727;49.934;8.656;2023-12-20T10:06:19;7.05;;;2.00;;
24559;SDS011;12727;49.934;8.656;2023-12-20T10:08:44;6.18;;;2.25;;
24559;SDS011;12727;49.934;8.656;2023-12-20T10:11:10;8.85;;;2.13;;
24559;SDS011;12727;49.934;8.656;2023-12-20T10:13:39;8.70;;;2.10;;
24559;SDS011;12727;49.934;8.656;2023-12-20T10:16:06;7.50;;;2.10;;
24559;SDS011;12727;49.934;8.656;2023-12-20T10:18:32;8.57;;;2.30;;
24559;SDS011;12727;49.934;8.656;2023-12-20T10:20:58;6.47;;;2.40;;
24559;SDS011;12727;49.934;8.656;2023-12-20T10:23:25;7.00;;;2.63;;
24559;SDS011;12727;49.934;8.656;2023-12-20T10:25:56;5.63;;;2.05;;
24559;SDS011;12727;49.934;8.656;2023-12-20T10:28:23;7.05;;;2.10;;
24559;SDS011;12727;49.934;8.656;2023-12-20T10:30:52;6.95;;;2.00;;
24559;SDS011;12727;49.934;8.656;2023-12-20T10:33:26;7.88;;;1.60;;
24559;SDS011;12727;49.934;8.656;2023-12-20T10:35:53;5.38;;;2.25;;
24559;SDS011;12727;49.934;8.656;2023-12-20T10:38:20;9.95;;;2.63;;
24559;SDS011;12727;49.934;8.656;2023-12-20T10:40:47;6.63;;;2.08;;
24559;SDS011;12727;49.934;8.656;2023-12-20T10:43:13;7.45;;;2.05;;
24559;SDS011;12727;49.934;8.656;2023-12-20T10:45:41;6.57;;;2.50;;
24559;SDS011;12727;49.934;8.656;2023-12-20T10:48:07;7.65;;;2.10;;
24559;SDS011;12727;49.934;8.656;2023-12-20T10:50:35;9.13;;;2.20;;
24559;SDS011;12727;49.934;8.656;2023-12-20T10:53:03;4.93;;;1.70;;
24559;SDS011;12727;49.934;8.656;2023-12-20T10:55:29;9.40;;;1.90;;
24559;SDS011;12727;49.934;8.656;2023-12-20T10:57:58;8.65;;;2.60;;
24559;SDS011;12727;49.934;8.656;2023-12-20T11:00:26;8.60;;;2.28;;
24559;SDS011;12727;49.934;8.656;2023-12-20T11:02:55;10.18;;;2.10;;
24559;SDS011;12727;49.934;8.656;2023-12-20T11:08:05;12.65;;;2.10;;
24559;SDS011;12727;49.934;8.656;2023-12-20T11:10:39;6.00;;;2.03;;
24559;SDS011;12727;49.934;8.656;2023-12-20T11:13:32;4.68;;;1.80;;
24559;SDS011;12727;49.934;8.656;2023-12-20T11:16:05;8.77;;;1.70;;
24559;SDS011;12727;49.934;8.656;2023-12-20T11:18:32;6.40;;;1.92;;
24559;SDS011;12727;49.934;8.656;2023-12-20T11:21:01;5.90;;;1.80;;
24559;SDS011;12727;49.934;8.656;2023-12-20T11:23:29;5.60;;;1.80;;
24559;SDS011;12727;49.934;8.656;2023-12-20T11:25:56;7.63;;;2.05;;
24559;SDS011;12727;49.934;8.656;2023-12-20T11:28:25;7.50;;;1.98;;
24559;SDS011;12727;49.934;8.656;2023-12-20T11:30:52;8.10;;;1.95;;
24559;SDS011;12727;49.934;8.656;2023-12-20T11:33:25;8.00;;;2.10;;
24559;SDS011;12727;49.934;8.656;2023-12-20T11:35:57;8.13;;;1.92;;
24559;SDS011;12727;49.934;8.656;2023-12-20T11:38:25;13.38;;;2.17;;
24559;SDS011;12727;49.934;8.656;2023-12-20T11:40:50;9.32;;;2.00;;
24559;SDS011;12727;49.934;8.656;2023-12-20T11:43:37;8.30;;;1.80;;
24559;SDS011;12727;49.934;8.656;2023-12-20T11:46:04;6.82;;;2.05;;
24559;SDS011;12727;49.934;8.656;2023-12-20T11:48:31;7.07;;;2.22;;
24559;SDS011;12727;49.934;8.656;2023-12-20T11:50:57;9.50;;;2.40;;
24559;SDS011;12727;49.934;8.656;2023-12-20T11:53:23;6.25;;;1.90;;
24559;SDS011;12727;49.934;8.656;2023-12-20T11:55:49;7.85;;;2.17;;
24559;SDS011;12727;49.934;8.656;2023-12-20T11:58:14;7.70;;;2.30;;
24559;SDS011;12727;49.934;8.656;2023-12-20T12:00:41;7.90;;;2.00;;
24559;SDS011;12727;49.934;8.656;2023-12-20T12:03:10;10.55;;;2.15;;
24559;SDS011;12727;49.934;8.656;2023-12-20T12:05:39;11.23;;;2.40;;
24559;SDS011;12727;49.934;8.656;2023-12-20T12:08:06;8.25;;;2.30;;
24559;SDS011;12727;49.934;8.656;2023-12-20T12:10:33;5.93;;;2.22;;
24559;SDS011;12727;49.934;8.656;2023-12-20T12:12:59;9.73;;;2.17;;
24559;SDS011;12727;49.934;8.656;2023-12-20T12:15:25;9.43;;;2.38;;
24559;SDS011;12727;49.934;8.656;2023-12-20T12:17:54;9.30;;;2.30;;
24559;SDS011;12727;49.934;8.656;2023-12-20T12:20:21;9.60;;;2.67;;
24559;SDS011;12727;49.934;8.656;2023-12-20T12:22:56;8.30;;;2.00;;
24559;SDS011;12727;49.934;8.656;2023-12-20T12:25:25;6.15;;;1.60;;
24559;SDS011;12727;49.934;8.656;2023-12-20T12:27:50;9.18;;;1.70;;
24559;SDS011;12727;49.934;8.656;2023-12-20T12:30:16;6.15;;;1.90;;
24559;SDS011;12727;49.934;8.656;2023-12-20T12:32:43;5.90;;;1.90;;
24559;SDS011;12727;49.934;8.656;2023-12-20T12:35:09;7.28;;;1.58;;
24559;SDS011;12727;49.934;8.656;2023-12-20T12:37:37;8.43;;;2.20;;
24559;SDS011;12727;49.934;8.656;2023-12-20T12:40:09;8.10;;;1.77;;
24559;SDS011;12727;49.934;8.656;2023-12-20T12:42:36;6.35;;;1.60;;
24559;SDS011;12727;49.934;8.656;2023-12-20T12:45:02;5.95;;;1.60;;
24559;SDS011;12727;49.934;8.656;2023-12-20T12:47:29;5.38;;;1.88;;
24559;SDS011;12727;49.934;8.656;2023-12-20T12:49:58;4.93;;;1.63;;
24559;SDS011;12727;49.934;8.656;2023-12-20T12:52:23;6.65;;;1.67;;
24559;SDS011;12727;49.934;8.656;2023-12-20T12:54:49;8.65;;;1.85;;
24559;SDS011;12727;49.934;8.656;2023-12-20T12:57:15;8.13;;;1.92;;
24559;SDS011;12727;49.934;8.656;2023-12-20T12:59:41;6.90;;;1.58;;
24559;SDS011;12727;49.934;8.656;2023-12-20T13:02:11;6.40;;;1.90;;
24559;SDS011;12727;49.934;8.656;2023-12-20T13:04:38;7.93;;;2.13;;
24559;SDS011;12727;49.934;8.656;2023-12-20T13:07:04;8.48;;;2.00;;
24559;SDS011;12727;49.934;8.656;2023-12-20T13:09:30;7.97;;;2.10;;
24559;SDS011;12727;49.934;8.656;2023-12-20T13:11:56;10.68;;;2.67;;
24559;SDS011;12727;49.934;8.656;2023-12-20T13:14:22;11.50;;;2.58;;
24559;SDS011;12727;49.934;8.656;2023-12-20T13:16:48;9.23;;;2.78;;
24559;SDS011;12727;49.934;8.656;2023-12-20T13:19:13;9.63;;;2.80;;
24559;SDS011;12727;49.934;8.656;2023-12-20T13:21:39;10.80;;;2.72;;
24559;SDS011;12727;49.934;8.656;2023-12-20T13:24:05;11.10;;;2.55;;
24559;SDS011;12727;49.934;8.656;2023-12-20T13:26:31;11.20;;;2.78;;
24559;SDS011;12727;49.934;8.656;2023-12-20T13:28:57;9.15;;;2.97;;
24559;SDS011;12727;49.934;8.656;2023-12-20T13:31:23;13.00;;;2.72;;
24559;SDS011;12727;49.934;8.656;2023-12-20T13:33:49;8.00;;;2.67;;
24559;SDS011;12727;49.934;8.656;2023-12-20T13:36:14;7.95;;;2.60;;
24559;SDS011;12727;49.934;8.656;2023-12-20T13:38:40;9.68;;;2.90;;
24559;SDS011;12727;49.934;8.656;2023-12-20T13:41:06;7.45;;;2.15;;
24559;SDS011;12727;49.934;8.656;2023-12-20T13:43:31;4.82;;;2.28;;
24559;SDS011;12727;49.934;8.656;2023-12-20T13:45:58;7.30;;;3.03;;
24559;SDS011;12727;49.934;8.656;2023-12-20T13:48:24;7.63;;;2.80;;
24559;SDS011;12727;49.934;8.656;2023-12-20T13:50:49;9.13;;;2.50;;
24559;SDS011;12727;49.934;8.656;2023-12-20T13:53:15;8.18;;;2.10;;
24559;SDS011;12727;49.934;8.656;2023-12-20T13:55:41;10.73;;;2.13;;
24559;SDS011;12727;49.934;8.656;2023-12-20T13:58:06;9.02;;;1.95;;
24559;SDS011;12727;49.934;8.656;2023-12-20T14:00:32;6.93;;;2.28;;
24559;SDS011;12727;49.934;8.656;2023-12-20T14:02:57;8.70;;;2.03;;
24559;SDS011;12727;49.934;8.656;2023-12-20T14:05:23;7.10;;;2.20;;
24559;SDS011;12727;49.934;8.656;2023-12-20T14:07:49;7.60;;;1.55;;
24559;SDS011;12727;49.934;8.656;2023-12-20T14:10:15;7.55;;;1.83;;
24559;SDS011;12727;49.934;8.656;2023-12-20T14:12:41;8.80;;;1.92;;
24559;SDS011;12727;49.934;8.656;2023-12-20T14:15:07;7.57;;;1.65;;
24559;SDS011;12727;49.934;8.656;2023-12-20T14:17:38;5.15;;;1.08;;
24559;SDS011;12727;49.934;8.656;2023-12-20T14:20:05;6.28;;;1.70;;
24559;SDS011;12727;49.934;8.656;2023-12-20T14:22:32;4.88;;;1.58;;
24559;SDS011;12727;49.934;8.656;2023-12-20T14:24:57;5.60;;;1.55;;
24559;SDS011;12727;49.934;8.656;2023-12-20T14:27:23;6.40;;;1.25;;
24559;SDS011;12727;49.934;8.656;2023-12-20T14:29:53;7.93;;;1.65;;
24559;SDS011;12727;49.934;8.656;2023-12-20T14:32:19;3.78;;;1.33;;
24559;SDS011;12727;49.934;8.656;2023-12-20T14:34:44;4.90;;;1.50;;
24559;SDS011;12727;49.934;8.656;2023-12-20T14:37:10;6.10;;;1.25;;
24559;SDS011;12727;49.934;8.656;2023-12-20T14:39:36;6.55;;;1.35;;
24559;SDS011;12727;49.934;8.656;2023-12-20T14:42:06;7.40;;;1.40;;